Time;durP1;ratioP1;P1;durP2;ratioP2;P2;SDS_P1;SDS_P2;PMS_P1;PMS_P2;Temp;Humidity;BMP_temperature;BMP_pressure;BME280_temperature;BME280_humidity;BME280_pressure;Samples;Min_cycle;Max_cycle;Signal;HPM_P1;HPM_P2
2022/06/22 00:01:17;;;;;;;4.70;1.10;;;;;;;13.42;54.80;99987.91;1402731;93;21409;-77
2022/06/22 00:03:54;;;;;;;2.40;1.10;;;;;;;13.41;54.57;99993.42;1397009;92;21571;-78
2022/06/22 00:06:34;;;;;;;3.10;1.23;;;;;;;13.40;55.21;99991.23;1404315;92;21548;-77
2022/06/22 00:09:01;;;;;;;2.60;1.00;;;;;;;13.41;55.70;99995.58;1399419;93;21370;-77
2022/06/22 00:11:28;;;;;;;5.27;1.20;;;;;;;13.41;56.30;100008.86;1402931;93;21401;-78
2022/06/22 00:13:59;;;;;;;4.67;1.23;;;;;;;13.41;56.33;100006.20;1388939;93;21420;-78
2022/06/22 00:16:30;;;;;;;5.17;1.80;;;;;;;13.41;56.01;99999.56;1411546;93;21408;-78
2022/06/22 00:18:58;;;;;;;8.17;1.40;;;;;;;13.41;55.70;100007.53;1408734;93;21615;-78
2022/06/22 00:21:39;;;;;;;6.67;1.80;;;;;;;13.41;55.39;100008.86;1397936;93;21550;-78
2022/06/22 00:24:29;;;;;;;7.67;2.47;;;;;;;13.42;55.21;100010.50;1389993;94;22310;-78
2022/06/22 00:27:00;;;;;;;5.87;1.60;;;;;;;13.44;55.20;100011.67;1399370;93;22393;-78
2022/06/22 00:29:33;;;;;;;;;;;;;;;13.44;54.71;100011.17;1408213;93;21394;-78
2022/06/22 00:32:03;;;;;;;8.20;1.87;;;;;;;13.45;55.46;100018.12;1400068;93;20404;-78
2022/06/22 00:34:33;;;;;;;2.03;0.90;;;;;;;13.46;54.23;100024.27;1410907;93;21540;-78
2022/06/22 00:37:21;;;;;;;3.60;1.20;;;;;;;13.47;54.65;100023.28;1412390;93;22243;-78
2022/06/22 00:39:52;;;;;;;4.30;1.40;;;;;;;13.49;54.43;100022.11;1383076;94;21459;-78
2022/06/22 00:42:32;;;;;;;7.47;1.97;;;;;;;13.53;54.16;100019.41;1394290;93;21930;-78
2022/06/22 00:45:09;;;;;;;3.40;1.15;;;;;;;13.59;54.59;100023.70;1393148;93;22414;-78
2022/06/22 00:47:47;;;;;;;1.50;0.97;;;;;;;13.66;54.10;100029.95;1406869;93;21459;-78
2022/06/22 00:50:18;;;;;;;3.70;1.27;;;;;;;13.70;53.80;100032.59;1407192;93;22712;-78
2022/06/22 00:52:49;;;;;;;3.97;1.30;;;;;;;13.71;53.83;100015.11;1405244;92;21682;-78
2022/06/22 00:55:40;;;;;;;3.33;1.90;;;;;;;13.77;53.58;100005.59;1402852;92;21594;-78
2022/06/22 00:58:43;;;;;;;3.03;1.20;;;;;;;13.79;53.41;99998.28;1405640;92;22449;-78
2022/06/22 01:01:23;;;;;;;5.80;1.47;;;;;;;13.81;53.46;99990.10;1407317;92;23611;-78
2022/06/22 01:04:09;;;;;;;2.65;1.30;;;;;;;13.81;53.09;99985.63;1403270;92;21525;-78
2022/06/22 01:07:04;;;;;;;7.37;1.20;;;;;;;13.80;53.36;99983.96;1413911;92;21497;-78
2022/06/22 01:10:01;;;;;;;5.43;1.30;;;;;;;13.80;52.97;99984.47;1410618;90;21629;-78
2022/06/22 01:12:51;;;;;;;2.17;1.23;;;;;;;13.75;53.14;99976.54;1398473;92;21452;-78
2022/06/22 01:15:26;;;;;;;2.27;1.03;;;;;;;13.66;54.40;99976.77;1389261;93;21541;-77
2022/06/22 01:18:12;;;;;;;2.17;1.20;;;;;;;13.58;55.01;99975.02;1387080;94;22369;-77
2022/06/22 01:21:05;;;;;;;2.80;1.10;;;;;;;13.45;55.14;99982.23;1389127;93;22588;-77
2022/06/22 01:23:55;;;;;;;5.20;1.20;;;;;;;13.36;55.00;99975.84;1380979;93;23330;-77
2022/06/22 01:26:35;;;;;;;2.77;1.30;;;;;;;13.31;54.20;99968.38;1362165;95;22466;-77
2022/06/22 01:29:14;;;;;;;;;;;;;;;13.28;54.20;99962.91;1409190;92;21399;-77
2022/06/22 01:32:03;;;;;;;2.67;1.07;;;;;;;13.26;55.96;99965.42;1406791;92;20419;-79
2022/06/22 01:34:36;;;;;;;2.53;1.10;;;;;;;13.23;55.92;99964.41;1408537;91;21501;-79
2022/06/22 01:37:06;;;;;;;5.43;1.30;;;;;;;13.19;56.16;99970.59;1405213;92;21415;-79
2022/06/22 01:39:33;;;;;;;3.47;0.90;;;;;;;13.19;55.21;99967.11;1408680;93;21454;-79
2022/06/22 01:42:19;;;;;;;2.37;1.07;;;;;;;13.21;55.22;99962.45;1395779;93;22010;-78
2022/06/22 01:45:05;;;;;;;3.97;0.87;;;;;;;13.22;55.58;99962.77;1401228;93;22648;-77
2022/06/22 01:47:54;;;;;;;2.97;0.87;;;;;;;13.21;55.35;99970.42;1405296;93;21410;-77
2022/06/22 01:50:49;;;;;;;2.70;1.03;;;;;;;13.20;55.31;99970.91;1399203;92;22659;-77
2022/06/22 01:53:38;;;;;;;7.20;1.43;;;;;;;13.19;55.54;99975.08;1403839;92;21490;-77
2022/06/22 01:56:25;;;;;;;4.67;1.20;;;;;;;13.20;55.66;99968.75;1402398;92;22360;-76
2022/06/22 01:59:31;;;;;;;5.37;2.40;;;;;;;13.13;57.32;99963.83;1393014;92;21552;-76
2022/06/22 02:02:16;;;;;;;3.17;1.40;;;;;;;13.05;56.59;99958.05;1406341;92;21600;-76
2022/06/22 02:05:00;;;;;;;5.00;1.73;;;;;;;12.94;56.58;99953.95;1409009;93;21600;-78
2022/06/22 02:07:44;;;;;;;3.67;1.73;;;;;;;12.87;56.43;99958.32;1393696;91;23746;-82
2022/06/22 02:10:51;;;;;;;5.03;1.43;;;;;;;12.81;57.08;99958.52;1407525;93;21549;-82
2022/06/22 02:13:46;;;;;;;4.63;1.10;;;;;;;12.82;57.07;99961.99;1407247;93;23248;-83
2022/06/22 02:16:38;;;;;;;8.13;1.43;;;;;;;12.80;57.71;99954.69;1402222;92;21563;-83
2022/06/22 02:19:12;;;;;;;2.87;1.13;;;;;;;12.75;57.06;99957.06;1392360;92;21456;-82
2022/06/22 02:21:56;;;;;;;3.50;1.60;;;;;;;12.73;58.24;99957.72;1421243;91;21280;-83
2022/06/22 02:24:35;;;;;;;2.20;1.20;;;;;;;12.72;58.41;99958.23;1424539;91;21385;-83
2022/06/22 02:27:22;;;;;;;7.10;2.50;;;;;;;12.67;58.22;99949.95;1420896;91;21346;-83
2022/06/22 02:29:56;;;;;;;7.57;1.87;;;;;;;12.65;58.87;99957.25;1432456;91;21634;-83
2022/06/22 02:32:40;;;;;;;8.43;2.40;;;;;;;12.61;57.99;99954.63;1404186;91;21451;-83
2022/06/22 02:35:09;;;;;;;12.50;1.63;;;;;;;12.60;57.83;99955.13;1422040;91;21524;-83
2022/06/22 02:37:43;;;;;;;7.33;1.60;;;;;;;12.55;57.96;99957.47;1417332;91;22477;-83
2022/06/22 02:40:15;;;;;;;6.33;1.17;;;;;;;12.56;57.86;99964.92;1420239;92;22478;-83
2022/06/22 02:45:27;;;;;;;5.83;1.40;;;;;;;12.57;57.84;99963.44;1415418;91;21547;-83
2022/06/22 02:48:03;;;;;;;12.27;1.47;;;;;;;12.54;58.27;99963.75;1406957;92;22303;-83
2022/06/22 02:50:44;;;;;;;7.60;1.90;;;;;;;12.54;58.06;99965.08;1393845;94;21479;-80
2022/06/22 02:53:24;;;;;;;7.37;1.73;;;;;;;12.51;58.32;99969.41;1415416;92;22429;-81
2022/06/22 02:55:53;;;;;;;5.12;1.57;;;;;;;12.48;58.48;99968.93;1413078;91;21438;-81
2022/06/22 02:58:33;;;;;;;5.30;1.70;;;;;;;12.46;58.33;99969.12;1403385;91;21460;-83
2022/06/22 03:01:06;;;;;;;5.85;1.70;;;;;;;12.45;58.41;99966.11;1409129;92;21415;-84
2022/06/22 03:03:35;;;;;;;10.03;1.73;;;;;;;12.49;58.46;99974.08;1417173;92;21364;-83
2022/06/22 03:06:02;;;;;;;11.30;3.30;;;;;;;12.51;58.09;99968.08;1404684;93;21596;-82
2022/06/22 03:08:29;;;;;;;9.77;2.00;;;;;;;12.55;57.94;99966.76;1402772;93;22858;-82
2022/06/22 03:11:03;;;;;;;10.13;1.97;;;;;;;12.57;57.64;99974.06;1391829;93;21344;-82
2022/06/22 03:13:37;;;;;;;9.53;1.93;;;;;;;12.60;57.51;99974.19;1395927;93;21379;-82
2022/06/22 03:16:04;;;;;;;4.60;1.60;;;;;;;12.62;57.50;99973.02;1396198;93;21402;-82
2022/06/22 03:18:33;;;;;;;6.83;2.40;;;;;;;12.64;57.73;99975.02;1419128;91;22343;-82
2022/06/22 03:21:07;;;;;;;12.20;3.60;;;;;;;12.68;57.55;99973.34;1421984;91;21565;-82
2022/06/22 03:23:58;;;;;;;7.63;1.87;;;;;;;12.72;57.58;99976.00;1419703;92;21342;-82
2022/06/22 03:26:28;;;;;;;3.95;1.60;;;;;;;12.77;58.28;99980.27;1398253;92;21482;-82
2022/06/22 03:29:20;;;;;;;9.38;1.90;;;;;;;12.82;59.99;99985.89;1408904;91;21326;-82
2022/06/22 03:31:51;;;;;;;8.27;2.47;;;;;;;12.88;61.33;99992.66;1407194;92;21498;-82
2022/06/22 03:34:32;;;;;;;16.03;2.67;;;;;;;12.96;61.36;99995.78;1411966;91;21392;-82
2022/06/22 03:37:13;;;;;;;10.60;3.95;;;;;;;13.02;61.21;99997.75;1409540;92;21386;-82
2022/06/22 03:39:44;;;;;;;10.10;3.53;;;;;;;13.09;60.34;100000.05;1416354;92;21436;-82
2022/06/22 03:42:22;;;;;;;17.43;4.73;;;;;;;13.15;60.06;100007.83;1425891;92;21327;-82
2022/06/22 03:44:56;;;;;;;12.70;2.43;;;;;;;13.20;59.85;100009.44;1411891;91;21601;-82
2022/06/22 03:47:44;;;;;;;8.57;2.13;;;;;;;13.26;60.13;100005.28;1414309;91;22592;-82
2022/06/22 03:50:18;;;;;;;18.07;2.20;;;;;;;13.32;59.03;100000.59;1417567;91;21444;-82
2022/06/22 03:52:50;;;;;;;6.50;2.27;;;;;;;13.39;58.51;100006.87;1416627;92;21408;-82
2022/06/22 03:55:21;;;;;;;15.97;2.10;;;;;;;13.48;59.45;100002.33;1416944;93;21453;-82
2022/06/22 03:57:49;;;;;;;;;;;;;;;13.57;59.20;100009.74;1408671;92;21440;-82
2022/06/22 04:00:18;;;;;;;5.93;2.10;;;;;;;13.64;59.07;100010.70;1406466;92;20323;-82
2022/06/22 04:02:44;;;;;;;7.50;1.53;;;;;;;13.73;58.18;100016.28;1400220;92;21447;-82
2022/06/22 04:05:18;;;;;;;5.87;1.70;;;;;;;13.82;57.92;100018.38;1402649;92;22459;-82
2022/06/22 04:07:46;;;;;;;8.23;2.73;;;;;;;13.91;57.37;100027.43;1402564;92;21364;-83
2022/06/22 04:10:50;;;;;;;9.20;1.50;;;;;;;14.01;57.61;100031.16;1404455;93;21395;-82
2022/06/22 04:13:24;;;;;;;3.97;1.80;;;;;;;14.09;57.07;100013.80;1407259;93;21514;-82
2022/06/22 04:15:59;;;;;;;7.00;1.17;;;;;;;14.21;56.33;100018.17;1404374;93;22324;-82
2022/06/22 04:18:33;;;;;;;4.40;1.23;;;;;;;14.33;56.06;100019.92;1402914;93;21401;-83
2022/06/22 04:21:07;;;;;;;2.50;1.20;;;;;;;14.44;55.73;100025.62;1402338;93;21430;-82
2022/06/22 04:23:53;;;;;;;2.00;0.93;;;;;;;14.57;55.25;100024.18;1402810;93;21358;-82
2022/06/22 04:26:27;;;;;;;4.10;1.03;;;;;;;14.71;54.83;100029.19;1405643;93;21372;-82
2022/06/22 04:28:59;;;;;;;3.13;1.10;;;;;;;14.86;53.81;100032.66;1405163;93;21356;-82
2022/06/22 04:31:33;;;;;;;5.77;1.20;;;;;;;15.00;54.65;100028.34;1404275;93;21407;-82
2022/06/22 04:34:10;;;;;;;7.13;1.47;;;;;;;15.15;54.30;100026.97;1407719;93;21585;-82
2022/06/22 04:36:45;;;;;;;6.30;2.13;;;;;;;15.27;53.93;100035.62;1414163;92;21481;-82
2022/06/22 04:39:19;;;;;;;5.30;1.37;;;;;;;15.41;53.19;100037.11;1406113;93;21490;-82
2022/06/22 04:41:46;;;;;;;12.70;1.50;;;;;;;15.55;52.64;100047.73;1409805;93;21438;-82
2022/06/22 04:44:22;;;;;;;9.93;1.93;;;;;;;15.74;52.45;100048.17;1384756;94;21453;-82
2022/06/22 04:46:53;;;;;;;3.17;1.37;;;;;;;15.89;52.20;100045.43;1395148;93;21378;-82
2022/06/22 04:49:27;;;;;;;5.60;1.40;;;;;;;16.03;51.66;100040.53;1403098;93;21387;-82
2022/06/22 04:52:05;;;;;;;3.93;1.30;;;;;;;16.14;51.83;100040.01;1402647;92;21558;-82
2022/06/22 04:54:35;;;;;;;4.00;1.40;;;;;;;16.24;51.09;100044.48;1406187;93;21581;-82
2022/06/22 04:57:13;;;;;;;8.85;1.87;;;;;;;16.39;50.35;100035.55;1400284;93;21348;-82
2022/06/22 04:59:41;;;;;;;62.63;3.87;;;;;;;16.51;50.48;100027.30;1408677;92;22075;-82
2022/06/22 05:02:11;;;;;;;8.37;1.67;;;;;;;16.64;50.03;100039.94;1411852;93;21549;-83
2022/06/22 05:04:42;;;;;;;3.33;1.67;;;;;;;16.79;48.87;100038.50;1403264;93;21335;-83
2022/06/22 05:07:52;;;;;;;4.97;1.57;;;;;;;16.97;48.85;100046.80;1389966;92;22393;-82
2022/06/22 05:10:38;;;;;;;7.60;1.45;;;;;;;17.10;48.47;100044.20;1410481;93;21445;-82
2022/06/22 05:13:13;;;;;;;7.13;1.53;;;;;;;17.27;48.91;100050.03;1399109;93;21561;-83
2022/06/22 05:15:42;;;;;;;5.17;1.30;;;;;;;17.42;49.15;100051.20;1398145;93;21357;-82
2022/06/22 05:18:25;;;;;;;5.53;1.03;;;;;;;17.53;48.05;100049.28;1408445;93;21433;-82
2022/06/22 05:20:57;;;;;;;31.47;2.10;;;;;;;17.67;47.82;100052.00;1404450;93;21335;-81
2022/06/22 05:23:26;;;;;;;3.60;1.40;;;;;;;17.80;47.59;100050.70;1413140;93;21415;-81
2022/06/22 05:25:55;;;;;;;13.03;2.00;;;;;;;17.95;47.30;100055.86;1408023;93;21268;-81
2022/06/22 05:28:30;;;;;;;4.00;1.97;;;;;;;18.08;47.14;100049.70;1409304;93;22373;-82
2022/06/22 05:31:07;;;;;;;8.83;1.53;;;;;;;18.16;46.10;100056.20;1386730;94;21431;-83
2022/06/22 05:33:37;;;;;;;4.47;1.40;;;;;;;18.24;46.11;100060.83;1394655;93;23467;-82
2022/06/22 05:36:12;;;;;;;7.67;1.43;;;;;;;18.43;45.63;100055.13;1398809;93;21393;-82
2022/06/22 05:38:45;;;;;;;4.60;1.40;;;;;;;18.43;45.63;100055.13;1408527;93;22076;-82
2022/06/22 05:41:15;;;;;;;2.73;1.40;;;;;;;18.64;45.55;100062.62;1404586;93;21380;-82
2022/06/22 05:43:42;;;;;;;4.87;1.65;;;;;;;18.70;44.54;100059.95;1395476;93;21610;-82
2022/06/22 05:46:14;;;;;;;11.90;1.53;;;;;;;18.82;44.77;100062.84;1399070;92;22467;-81
2022/06/22 05:48:43;;;;;;;10.10;1.60;;;;;;;18.96;44.54;100066.30;1395034;92;21400;-81
2022/06/22 05:51:44;;;;;;;4.85;1.25;;;;;;;19.03;43.37;100061.73;1395605;93;21505;-81
2022/06/22 05:54:19;;;;;;;5.50;1.60;;;;;;;19.16;43.75;100058.16;1402640;92;22318;-82
2022/06/22 05:57:02;;;;;;;159.87;8.40;;;;;;;19.25;42.82;100056.06;1397718;93;21579;-80
2022/06/22 05:59:46;;;;;;;4.83;1.50;;;;;;;19.37;43.11;100051.69;1395076;93;21394;-81
2022/06/22 06:02:36;;;;;;;11.13;1.33;;;;;;;19.53;43.30;100059.74;1412267;91;22549;-93
2022/06/22 06:05:24;;;;;;;5.35;1.35;;;;;;;19.56;42.69;100056.63;1396228;92;21424;-93
2022/06/22 06:07:54;;;;;;;3.23;1.23;;;;;;;19.71;42.26;100063.91;1404559;93;21432;-90
2022/06/22 06:10:25;;;;;;;15.75;1.52;;;;;;;19.85;42.14;100060.59;1404476;92;22237;-93
2022/06/22 06:13:06;;;;;;;3.93;1.40;;;;;;;19.95;42.65;100064.16;1404328;93;21513;-92
2022/06/22 06:15:36;;;;;;;12.73;1.60;;;;;;;20.05;42.38;100063.99;1404322;92;21550;-93
2022/06/22 06:18:05;;;;;;;6.70;1.37;;;;;;;20.17;42.47;100064.59;1407128;92;22571;-92
2022/06/22 06:20:48;;;;;;;4.67;1.83;;;;;;;20.29;42.17;100069.58;1406275;91;21372;-93
2022/06/22 06:23:22;;;;;;;7.63;1.67;;;;;;;20.38;41.98;100064.75;1414130;92;21446;-91
2022/06/22 06:28:41;;;;;;;3.85;1.50;;;;;;;20.64;41.29;100076.62;1385851;94;21393;-92
2022/06/22 06:31:15;;;;;;;5.28;1.37;;;;;;;20.73;39.65;100075.28;1385595;93;21570;-89
2022/06/22 06:33:41;;;;;;;11.50;1.32;;;;;;;20.88;40.77;100066.84;1409618;92;21618;-90
2022/06/22 06:36:19;;;;;;;4.22;1.40;;;;;;;20.98;40.39;100072.25;1415221;91;21549;-89
2022/06/22 06:39:02;;;;;;;5.30;1.37;;;;;;;20.95;39.04;100072.16;1418448;91;21363;-90
2022/06/22 06:42:03;;;;;;;12.20;2.22;;;;;;;21.07;38.81;100069.55;1411374;92;21611;-90
2022/06/22 06:44:23;;;;;;;17.55;1.92;;;;;;;21.11;39.71;100071.54;1413618;91;23401;-90
2022/06/22 06:46:53;;;;;;;6.28;1.52;;;;;;;21.30;39.42;100075.58;1439827;92;21445;-91
2022/06/22 06:49:54;;;;;;;3.77;1.67;;;;;;;21.42;40.07;100070.28;1471070;92;22279;-91
2022/06/22 06:52:39;;;;;;;;;;;;;;;21.54;39.52;100061.19;1396076;91;21582;-90
2022/06/22 06:55:16;;;;;;;3.75;1.35;;;;;;;21.62;37.92;100071.64;1442773;90;20863;-92
2022/06/22 06:57:48;;;;;;;3.50;1.60;;;;;;;21.61;37.54;100071.36;1501187;91;21306;-91
2022/06/22 07:00:15;;;;;;;9.48;2.17;;;;;;;21.67;37.29;100066.11;1436049;92;21320;-92
2022/06/22 07:02:43;;;;;;;7.15;1.35;;;;;;;21.71;37.89;100069.98;1397778;91;22105;-90
2022/06/22 07:05:19;;;;;;;7.80;1.80;;;;;;;21.82;37.78;100068.66;1343589;91;21254;-90
2022/06/22 07:08:04;;;;;;;6.95;1.05;;;;;;;22.01;37.68;100068.07;1446036;92;21431;-90
2022/06/22 07:10:41;;;;;;;8.08;1.95;;;;;;;22.18;37.44;100066.05;1356578;92;21261;-89
2022/06/22 07:13:16;;;;;;;14.35;2.20;;;;;;;22.35;36.39;100068.36;1370085;93;22316;-95
2022/06/22 07:15:46;;;;;;;2.85;1.37;;;;;;;22.41;36.72;100075.53;1396985;92;21429;-96
2022/06/22 07:18:30;;;;;;;11.57;1.52;;;;;;;22.58;36.46;100073.46;1406414;92;22664;-90
2022/06/22 07:21:35;;;;;;;7.05;1.80;;;;;;;22.65;36.63;100073.65;1405648;92;21346;-91
2022/06/22 07:24:09;;;;;;;7.90;1.80;;;;;;;22.80;36.40;100066.41;1409121;92;21432;-92
2022/06/22 07:27:08;;;;;;;2.22;1.15;;;;;;;22.65;35.72;100067.44;1397716;93;21513;-93
2022/06/22 07:29:43;;;;;;;11.78;1.70;;;;;;;22.72;35.64;100060.02;1405506;93;21511;-92
2022/06/22 07:32:41;;;;;;;6.97;2.08;;;;;;;22.69;35.06;100065.89;1387466;94;21535;-91
2022/06/22 07:35:18;;;;;;;8.60;1.45;;;;;;;22.75;35.07;100071.69;1402744;92;22367;-92
2022/06/22 07:38:08;;;;;;;4.87;1.12;;;;;;;22.75;35.07;100071.69;1402874;91;21496;-95
2022/06/22 07:40:38;;;;;;;8.48;1.20;;;;;;;23.03;34.29;100056.67;1411744;92;22383;-93
2022/06/22 07:43:04;;;;;;;8.68;1.57;;;;;;;23.03;33.44;100068.28;1411394;92;22317;-90
2022/06/22 07:45:31;;;;;;;3.67;1.07;;;;;;;22.89;32.06;100064.98;1455182;92;21216;-93
2022/06/22 07:48:08;;;;;;;8.38;1.60;;;;;;;22.95;33.08;100064.06;1335599;93;21312;-90
2022/06/22 07:50:49;;;;;;;15.15;1.75;;;;;;;23.05;32.28;100065.36;1333502;94;21430;-91
2022/06/22 07:53:20;;;;;;;17.15;2.08;;;;;;;23.16;33.77;100058.58;1375359;95;21441;-91
2022/06/22 07:56:06;;;;;;;4.60;1.30;;;;;;;23.18;32.13;100066.42;1353834;93;22204;-90
2022/06/22 07:58:44;;;;;;;8.18;1.37;;;;;;;23.21;32.45;100063.23;1476368;91;21435;-93
2022/06/22 08:01:15;;;;;;;2.60;1.05;;;;;;;23.22;31.58;100082.45;1393097;91;21236;-91
2022/06/22 08:03:52;;;;;;;3.37;1.55;;;;;;;23.16;30.05;100070.72;1337062;92;21327;-91
2022/06/22 08:06:29;;;;;;;1.87;1.15;;;;;;;23.03;31.20;100068.81;1315873;96;21468;-91
2022/06/22 08:09:24;;;;;;;15.55;1.90;;;;;;;23.13;32.56;100056.86;1451400;93;22106;-92
2022/06/22 08:12:11;;;;;;;2.35;1.00;;;;;;;23.02;31.10;100061.25;1381086;92;21404;-92
2022/06/22 08:14:44;;;;;;;18.30;2.15;;;;;;;23.02;31.10;100061.25;1409840;92;21659;-95
2022/06/22 08:17:37;;;;;;;1.27;1.05;;;;;;;23.15;32.05;100059.02;1405181;92;22345;-94
2022/06/22 08:20:06;;;;;;;7.00;1.22;;;;;;;23.29;31.56;100054.77;1406501;92;21443;-93
2022/06/22 08:22:32;;;;;;;4.08;1.20;;;;;;;23.29;31.56;100054.77;1403212;91;21407;-92
2022/06/22 08:25:00;;;;;;;2.65;1.57;;;;;;;23.48;31.23;100049.16;1400399;92;21357;-92
2022/06/22 08:27:28;;;;;;;4.15;1.12;;;;;;;23.62;31.85;100055.91;1400731;92;22272;-94
2022/06/22 08:29:57;;;;;;;5.37;1.15;;;;;;;23.82;32.09;100047.37;1406055;93;22791;-95
2022/06/22 08:32:35;;;;;;;5.28;1.45;;;;;;;23.93;31.53;100050.54;1406935;93;21473;-94
2022/06/22 08:35:15;;;;;;;2.83;1.55;;;;;;;24.16;31.60;100048.20;1403943;93;21438;-93
2022/06/22 08:37:47;;;;;;;9.63;1.60;;;;;;;24.38;31.65;100046.93;1406584;92;21691;-92
2022/06/22 08:40:34;;;;;;;3.50;1.52;;;;;;;24.44;30.75;100049.21;1406353;92;22815;-93
2022/06/22 08:43:20;;;;;;;4.85;1.15;;;;;;;24.52;31.61;100056.91;1407242;93;21474;-87
2022/06/22 08:46:33;;;;;;;7.78;1.52;;;;;;;24.32;30.53;100047.92;1394263;93;22385;-91
2022/06/22 08:49:25;;;;;;;3.90;1.40;;;;;;;24.50;31.96;100044.16;1398461;93;21590;-95
2022/06/22 08:52:26;;;;;;;3.47;1.82;;;;;;;24.54;31.47;100038.02;1392095;93;21469;-95
2022/06/22 08:55:16;;;;;;;2.08;1.22;;;;;;;24.57;31.30;100038.05;1343886;93;21521;-96
2022/06/22 08:58:10;;;;;;;;;;;;;;;24.67;31.57;100024.64;1405242;92;21377;-92
2022/06/22 09:01:19;;;;;;;2.83;1.30;;;;;;;24.66;31.61;100027.62;1404656;93;20420;-91
2022/06/22 09:04:12;;;;;;;11.50;1.90;;;;;;;24.68;31.29;100028.98;1393539;93;21372;-91
2022/06/22 09:07:25;;;;;;;3.87;1.52;;;;;;;24.79;31.26;100030.48;1399283;93;21432;-89
2022/06/22 09:10:18;;;;;;;7.40;2.00;;;;;;;25.08;31.57;100020.27;1403678;92;21380;-89
2022/06/22 09:12:58;;;;;;;5.58;1.80;;;;;;;25.28;29.81;100014.30;1406739;93;21452;-89
2022/06/22 09:16:10;;;;;;;8.53;1.90;;;;;;;25.30;30.31;100009.45;1402228;93;21468;-90
2022/06/22 09:19:04;;;;;;;7.12;2.40;;;;;;;25.39;30.52;100011.98;1401939;93;21394;-90
2022/06/22 09:21:44;;;;;;;7.75;1.95;;;;;;;25.11;29.58;100020.58;1402309;93;21395;-91
2022/06/22 09:24:24;;;;;;;4.17;1.55;;;;;;;25.10;28.83;100009.47;1400080;92;21616;-89
2022/06/22 09:27:05;;;;;;;4.53;1.45;;;;;;;25.31;29.60;100014.59;1386303;93;22370;-89
2022/06/22 09:29:48;;;;;;;3.95;1.80;;;;;;;25.11;27.73;100008.94;1403407;93;21433;-92
2022/06/22 09:32:44;;;;;;;4.10;1.65;;;;;;;25.31;28.74;100009.72;1403240;93;21994;-90
2022/06/22 09:35:50;;;;;;;4.22;1.55;;;;;;;25.54;29.43;100013.47;1387350;93;21551;-89
2022/06/22 09:38:27;;;;;;;6.87;1.50;;;;;;;25.81;28.18;100006.69;1398742;93;23488;-90
2022/06/22 09:41:27;;;;;;;4.50;1.40;;;;;;;25.79;28.34;100004.77;1407429;93;21542;-91
2022/06/22 09:44:33;;;;;;;7.45;1.65;;;;;;;25.51;29.37;100009.92;1385254;93;21917;-92
2022/06/22 09:47:42;;;;;;;5.83;1.67;;;;;;;25.65;28.79;100015.20;1399975;92;21612;-90
2022/06/22 09:50:42;;;;;;;2.75;1.62;;;;;;;25.98;28.29;100017.42;1402081;93;21460;-91
2022/06/22 09:53:26;;;;;;;6.62;1.67;;;;;;;26.28;29.16;100016.81;1412400;93;21461;-90
2022/06/22 09:56:27;;;;;;;7.35;2.40;;;;;;;26.44;26.61;100008.75;1403281;93;22304;-90
2022/06/22 09:59:25;;;;;;;30.40;2.58;;;;;;;26.57;27.38;100013.75;1406599;93;21387;-90
2022/06/22 10:02:27;;;;;;;5.30;1.50;;;;;;;26.62;28.13;100017.05;1396257;92;21512;-90
2022/06/22 10:05:29;;;;;;;2.30;1.25;;;;;;;26.70;27.71;100019.23;1415895;90;21483;-90
2022/06/22 10:08:37;;;;;;;6.83;1.55;;;;;;;26.76;27.71;100020.92;1414187;92;21874;-90
2022/06/22 10:11:26;;;;;;;3.75;1.85;;;;;;;26.88;27.47;100017.44;1417878;91;21615;-90
2022/06/22 10:14:07;;;;;;;3.77;1.55;;;;;;;26.76;27.14;100014.13;1422675;91;21667;-91
2022/06/22 10:16:41;;;;;;;4.67;1.62;;;;;;;26.74;26.77;100022.53;1417047;91;21542;-89
2022/06/22 10:19:37;;;;;;;7.95;1.47;;;;;;;26.74;26.65;100011.67;1420943;91;21342;-90
2022/06/22 10:22:37;;;;;;;1.85;1.40;;;;;;;26.78;27.21;100007.88;1415043;91;21549;-92
2022/06/22 10:25:21;;;;;;;5.47;1.22;;;;;;;27.09;26.69;100014.23;1423212;91;21550;-96
2022/06/22 10:27:56;;;;;;;5.45;1.50;;;;;;;27.27;27.37;100008.88;1406180;92;21505;-94
2022/06/22 10:30:40;;;;;;;20.55;2.10;;;;;;;27.14;27.15;100006.66;1408055;93;21524;-92
2022/06/22 10:33:17;;;;;;;4.22;1.87;;;;;;;27.18;26.90;100000.44;1397648;92;21409;-96
2022/06/22 10:36:24;;;;;;;2.52;1.22;;;;;;;27.31;26.91;99996.41;1399178;92;21499;-95
2022/06/22 10:39:08;;;;;;;2.45;1.20;;;;;;;27.35;27.41;99989.34;1392481;92;22276;-91
2022/06/22 10:45:41;;;;;;;2.52;1.32;;;;;;;26.93;26.29;99994.89;1397319;94;21416;-93
2022/06/22 10:48:35;;;;;;;5.78;1.82;;;;;;;26.73;26.98;99991.05;1397190;94;21423;-94
2022/06/22 10:51:25;;;;;;;1.52;0.98;;;;;;;27.21;26.95;99990.94;1398925;93;21341;-92
2022/06/22 10:54:18;;;;;;;;;;;;;;;27.35;26.47;99989.34;1409364;92;21516;-91
2022/06/22 10:57:11;;;;;;;2.15;1.17;;;;;;;27.62;26.25;99982.84;1400745;92;20295;-93
2022/06/22 10:59:59;;;;;;;7.12;2.25;;;;;;;28.11;27.39;99985.05;1396198;93;21381;-95
2022/06/22 11:02:56;;;;;;;4.40;1.30;;;;;;;28.23;26.84;99990.19;1350658;96;21567;-93
2022/06/22 11:06:05;;;;;;;6.12;1.37;;;;;;;27.81;25.84;99989.40;1429736;89;21436;-93
2022/06/22 11:08:53;;;;;;;18.37;2.55;;;;;;;27.61;26.40;99994.80;1413381;92;21562;-93
2022/06/22 11:11:43;;;;;;;4.70;1.50;;;;;;;27.65;26.67;99987.76;1434630;91;22724;-94
2022/06/22 11:14:31;;;;;;;;;;;;;;;27.73;26.12;99990.45;1393401;93;21601;-93
2022/06/22 11:17:32;;;;;;;5.10;1.65;;;;;;;27.54;26.19;99988.84;1400506;93;20409;-94
2022/06/22 11:20:44;;;;;;;2.42;1.00;;;;;;;27.50;25.53;99982.30;1408452;90;21487;-92
2022/06/22 11:23:14;;;;;;;3.40;1.72;;;;;;;27.73;25.94;99985.83;1427094;90;22485;-93
2022/06/22 11:32:07;;;;;;;6.25;1.70;;;;;;;28.12;25.44;99990.19;1404188;92;21459;-91
2022/06/22 11:34:48;;;;;;;1.80;1.40;;;;;;;28.11;25.50;99987.77;1393844;93;21896;-95
2022/06/22 11:37:48;;;;;;;3.37;1.70;;;;;;;27.78;25.34;99981.77;1413322;90;22524;-95
2022/06/22 11:40:55;;;;;;;5.60;1.22;;;;;;;27.36;26.24;99974.69;1426598;91;21612;-96
2022/06/22 11:43:36;;;;;;;6.95;2.70;;;;;;;27.59;26.55;99972.51;1416952;91;21524;-94
2022/06/22 11:46:29;;;;;;;2.22;1.22;;;;;;;27.94;25.87;99962.73;1407441;92;21450;-96
2022/06/22 11:49:44;;;;;;;2.22;1.07;;;;;;;28.22;25.18;99967.58;1393458;93;21325;-95
2022/06/22 11:52:47;;;;;;;4.65;1.40;;;;;;;28.38;25.29;99967.01;1400929;92;22732;-94
2022/06/22 11:55:30;;;;;;;9.38;1.10;;;;;;;28.54;25.57;99966.42;1466981;89;21913;-93
2022/06/22 11:58:23;;;;;;;2.22;1.15;;;;;;;28.84;25.38;99959.23;1435988;89;22455;-94
2022/06/22 12:01:04;;;;;;;4.50;1.10;;;;;;;28.76;24.87;99960.08;1401522;92;21466;-94
2022/06/22 12:04:03;;;;;;;2.87;1.85;;;;;;;28.74;24.79;99970.98;1405708;92;21488;-92
2022/06/22 12:06:47;;;;;;;5.28;1.25;;;;;;;28.60;25.20;99972.14;1411377;92;21883;-91
2022/06/22 12:09:41;;;;;;;4.20;1.20;;;;;;;28.54;24.96;99973.23;1415644;91;21531;-91
2022/06/22 12:12:33;;;;;;;3.52;1.20;;;;;;;28.67;25.19;99974.01;1407429;92;21429;-90
2022/06/22 12:15:43;;;;;;;5.50;1.42;;;;;;;28.55;24.40;99974.33;1403429;92;22027;-88
2022/06/22 12:18:32;;;;;;;3.75;1.30;;;;;;;28.77;24.97;99961.72;1412413;92;22280;-90
2022/06/22 12:21:44;;;;;;;4.53;1.37;;;;;;;29.14;24.50;99968.61;1403248;93;21478;-91
2022/06/22 12:24:32;;;;;;;4.50;0.98;;;;;;;29.23;23.78;99965.58;1408611;93;21608;-90
2022/06/22 12:27:10;;;;;;;1.87;1.35;;;;;;;29.14;23.40;99963.72;1384446;93;21569;-90
2022/06/22 12:30:08;;;;;;;8.13;1.17;;;;;;;29.08;23.80;99961.57;1395284;93;22131;-90
2022/06/22 12:32:51;;;;;;;1.57;1.15;;;;;;;29.11;23.99;99966.45;1402477;92;21416;-90
2022/06/22 12:35:32;;;;;;;1.82;1.30;;;;;;;29.07;23.69;99964.04;1406315;93;21333;-91
2022/06/22 12:38:07;;;;;;;4.03;1.42;;;;;;;29.01;24.10;99962.41;1406145;92;22338;-90
2022/06/22 12:40:45;;;;;;;5.45;1.30;;;;;;;29.14;24.44;99960.99;1396424;93;22444;-89
2022/06/22 12:43:35;;;;;;;3.47;1.30;;;;;;;29.26;23.81;99963.36;1402886;93;21616;-89
2022/06/22 12:46:29;;;;;;;1.82;1.00;;;;;;;29.24;23.65;99956.30;1383766;94;21639;-92
2022/06/22 12:49:43;;;;;;;7.05;1.07;;;;;;;29.22;22.67;99950.31;1388840;94;21593;-93
2022/06/22 12:52:25;;;;;;;5.55;0.80;;;;;;;29.29;23.71;99953.26;1401750;92;21456;-91
2022/06/22 12:55:00;;;;;;;4.15;1.95;;;;;;;29.48;23.68;99946.03;1406861;92;21414;-91